Latest Coastal Weather Observations for Burnie Port

IDT60701

Issued at 5:22 am EST Wednesday 18 September 2019 (issued every 10 minutes, with the page automatically refreshed every 10 minutes)

About coastal observations | Map of coastal stations | Coastal observations for TAS | Marine services | Other Formats
Station Details ID: 091344 Name: BURNIE NTC AWS Lat: -41.05 Lon: 145.91 Height: 0.0 m
Data from the previous 72 hours. | See also: Recent months for locations in Tasmania
Date/Time
EST
Wind Sea
Height
m
Swell Vis
km
Cloud Weather Temp
°C
Press
hPa
Rain since
9am
mm
Dir  Spd
kts
Gust
kts
Height
m
Period
s
Dir
18/05:00am S 4 5 - - - - - - - 5.7 1028.5 -
18/04:30am S 5 6 - - - - - - - 5.9 1028.5 -
18/04:00am S 4 6 - - - - - - - 6.2 1028.7 -
18/03:30am S 4 5 - - - - - - - 6.2 1028.8 -
18/03:00am S 4 5 - - - - - - - 6.0 1028.9 -
18/02:30am S 4 5 - - - - - - - 5.7 1029.1 -
18/02:00am S 4 6 - - - - - - - 5.4 1029.3 -
18/01:30am S 4 5 - - - - - - - 5.5 1029.5 -
18/01:00am S 3 4 - - - - - - - 5.8 1029.4 -
18/12:30am S 3 4 - - - - - - - 6.5 1029.4 -
18/12:00am CALM 0 2 - - - - - - - 6.6 1029.4 -
 
Date/Time
EST
Wind Sea
Height
m
Swell Vis
km
Cloud Weather Temp
°C
Press
hPa
Rain since
9am
mm
Dir  Spd
kts
Gust
kts
Height
m
Period
s
Dir
17/11:30pm SW 5 7 - - - - - - - 6.8 1029.3 -
17/11:00pm SW 5 6 - - - - - - - 7.2 1029.3 -
17/10:30pm SW 5 6 - - - - - - - 6.8 1029.3 -
17/10:00pm WSW 6 9 - - - - - - - 7.6 1029.2 -
17/09:30pm WSW 6 8 - - - - - - - 7.8 1029.1 -
17/09:00pm WSW 5 9 - - - - - - - 8.3 1029.0 -
17/08:30pm WSW 5 9 - - - - - - - 8.5 1028.8 -
17/08:00pm W 5 9 - - - - - - - 8.8 1028.7 -
17/07:30pm W 6 9 - - - - - - - 9.2 1028.5 -
17/07:00pm W 6 10 - - - - - - - 9.7 1028.1 -
17/06:30pm W 7 11 - - - - - - - 10.2 1027.8 -
17/06:00pm NW 16 20 - - - - - - - 10.7 1027.5 -
17/05:30pm NW 18 21 - - - - - - - 10.5 1027.4 -
17/05:00pm NW 19 22 - - - - - - - 10.4 1027.3 -
17/04:30pm NW 19 23 - - - - - - - 10.3 1027.1 -
17/04:00pm NW 21 25 - - - - - - - 10.2 1027.0 -
17/03:30pm NW 19 24 - - - - - - - 10.2 1027.0 -
17/03:00pm NNW 18 22 - - - - - - - 10.2 1027.1 -
17/02:30pm NW 19 23 - - - - - - - 10.0 1027.2 -
17/02:00pm NNW 18 21 - - - - - - - 9.9 1027.3 -
17/01:30pm NNW 16 19 - - - - - - - 9.7 1027.5 -
17/01:00pm NNW 14 17 - - - - - - - 9.7 1027.8 -
17/12:30pm NNW 14 16 - - - - - - - 9.3 1028.0 -
17/12:00pm NNW 12 15 - - - - - - - 9.1 1028.1 -
17/11:30am NNW 11 13 - - - - - - - 8.8 1028.1 -
17/11:00am NNW 10 12 - - - - - - - 8.3 1028.5 -
17/10:30am NNW 9 10 - - - - - - - 8.3 1028.6 -
17/10:00am NNW 10 11 - - - - - - - 7.9 1028.6 -
17/09:30am NW 6 9 - - - - - - - 8.2 1028.7 -
17/09:00am W 4 7 - - - - - - - 7.8 1028.9 -
17/08:30am N 1 3 - - - - - - - 6.9 1028.8 -
17/08:00am SE 2 4 - - - - - - - 6.3 1028.4 -
17/07:30am SSW 4 6 - - - - - - - 5.5 1027.9 -
17/07:00am NE 1 2 - - - - - - - 4.6 1027.6 -
17/06:30am SSW 3 5 - - - - - - - 3.9 1027.3 -
17/06:00am S 5 6 - - - - - - - 3.5 1026.9 -
17/05:30am S 6 7 - - - - - - - 3.6 1026.4 -
17/05:00am S 4 5 - - - - - - - 3.6 1026.4 -
17/04:30am SSE 6 9 - - - - - - - 3.3 1026.1 -
17/04:00am S 2 5 - - - - - - - 3.7 1026.1 -
17/03:30am S 4 7 - - - - - - - 3.5 1026.2 -
17/03:00am SSW 5 7 - - - - - - - 3.4 1026.1 -
17/02:30am SSW 7 9 - - - - - - - 3.6 1026.2 -
17/02:00am SSW 6 9 - - - - - - - 4.2 1026.4 -
17/01:30am SSW 5 7 - - - - - - - 4.7 1026.3 -
17/01:00am SSW 5 7 - - - - - - - 4.8 1026.6 -
17/12:30am SW 5 7 - - - - - - - 5.2 1026.7 -
17/12:00am SSW 7 9 - - - - - - - 5.3 1026.4 -
 
Date/Time
EST
Wind Sea
Height
m
Swell Vis
km
Cloud Weather Temp
°C
Press
hPa
Rain since
9am
mm
Dir  Spd
kts
Gust
kts
Height
m
Period
s
Dir
16/11:30pm SW 8 11 - - - - - - - 5.5 1026.0 -
16/11:00pm SSW 6 9 - - - - - - - 5.5 1026.1 -
16/10:30pm SW 6 10 - - - - - - - 5.4 1026.2 -
16/10:00pm SW 3 7 - - - - - - - 6.1 1025.9 -
16/09:30pm WNW 2 3 - - - - - - - 6.0 1025.5 -
16/09:00pm W 4 9 - - - - - - - 6.3 1025.3 -
16/08:30pm WSW 8 11 - - - - - - - 6.9 1025.1 -
16/08:00pm SW 6 9 - - - - - - - 7.1 1024.8 -
16/07:30pm SW 7 12 - - - - - - - 7.7 1024.3 -
16/07:00pm SW 8 12 - - - - - - - 8.0 1023.7 -
16/06:30pm SSW 9 11 - - - - - - - 8.5 1022.9 -
16/06:00pm SSW 7 11 - - - - - - - 9.1 1022.3 -
16/05:30pm SW 11 19 - - - - - - - 9.7 1021.5 -
16/05:00pm SW 12 21 - - - - - - - 10.2 1021.0 -
16/04:30pm SW 11 18 - - - - - - - 10.2 1020.4 -
16/04:00pm SSW 11 16 - - - - - - - 10.1 1020.1 -
16/03:30pm SSW 16 25 - - - - - - - 9.6 1019.9 -
16/03:15pm SSW 15 28 - - - - - - - 10.1 1019.5 -
16/03:00pm WSW 9 20 - - - - - - - 11.1 1019.0 -
16/02:30pm SSW 13 25 - - - - - - - 10.9 1018.6 -
16/02:00pm SW 10 20 - - - - - - - 10.4 1018.3 -
16/01:30pm WSW 8 18 - - - - - - - 9.8 1018.2 -
16/01:00pm SW 8 15 - - - - - - - 9.1 1018.2 -
16/12:34pm SSW 15 29 - - - - - - - 8.0 1018.4 -
16/12:30pm SSW 11 17 - - - - - - - 10.3 1017.9 -
16/12:00pm SW 10 18 - - - - - - - 10.3 1017.6 -
16/11:30am SSW 13 19 - - - - - - - 9.3 1017.5 -
16/11:00am SW 12 24 - - - - - - - 8.8 1017.5 -
16/10:47am SW 15 27 - - - - - - - 8.6 1017.5 -
16/10:30am WSW 12 25 - - - - - - - 8.6 1017.2 -
16/10:00am SW 12 21 - - - - - - - 7.6 1016.7 -
16/09:51am SW 15 27 - - - - - - - 8.1 1016.8 -
16/09:30am SW 11 21 - - - - - - - 8.9 1016.2 -
16/09:00am SW 13 24 - - - - - - - 8.4 1015.8 -
16/08:30am SW 14 24 - - - - - - - 8.1 1015.6 -
16/08:00am WSW 10 17 - - - - - - - 7.6 1014.8 -
16/07:30am WSW 6 11 - - - - - - - 6.9 1014.5 -
16/07:00am W 8 13 - - - - - - - 6.6 1014.2 -
16/06:30am WSW 13 26 - - - - - - - 6.9 1013.7 -
16/06:00am WSW 8 15 - - - - - - - 6.5 1012.9 -
16/05:30am WSW 12 20 - - - - - - - 6.6 1012.0 -
16/05:01am WSW 15 26 - - - - - - - 7.6 1011.8 -
16/05:00am WSW 16 26 - - - - - - - 7.8 1011.7 -
16/04:58am WSW 15 26 - - - - - - - 7.8 1011.6 -
16/04:30am W 8 13 - - - - - - - 8.4 1010.4 -
16/04:00am W 10 19 - - - - - - - 8.3 1009.8 -
16/03:30am W 9 15 - - - - - - - 9.1 1009.5 -
16/03:00am WNW 9 15 - - - - - - - 9.2 1008.8 -
16/02:30am W 8 17 - - - - - - - 9.2 1008.8 -
16/02:00am W 8 13 - - - - - - - 9.2 1009.1 -
16/01:30am W 8 16 - - - - - - - 9.3 1008.9 -
16/01:00am W 11 19 - - - - - - - 9.6 1009.3 -
16/12:30am W 9 15 - - - - - - - 9.6 1009.0 -
16/12:00am WNW 8 16 - - - - - - - 9.6 1009.2 -
 
Date/Time
EST
Wind Sea
Height
m
Swell Vis
km
Cloud Weather Temp
°C
Press
hPa
Rain since
9am
mm
Dir  Spd
kts
Gust
kts
Height
m
Period
s
Dir
15/11:30pm WNW 7 13 - - - - - - - 9.6 1009.3 -
15/11:00pm WNW 7 11 - - - - - - - 9.7 1009.7 -
15/10:30pm WNW 6 11 - - - - - - - 9.6 1009.6 -
15/10:00pm WNW 6 11 - - - - - - - 9.7 1009.7 -
15/09:30pm WNW 4 6 - - - - - - - 9.9 1009.7 -
15/09:00pm WNW 5 9 - - - - - - - 10.1 1009.8 -
15/08:30pm WNW 5 9 - - - - - - - 10.6 1010.2 -
15/08:00pm W 7 13 - - - - - - - 11.0 1010.3 -
15/07:30pm WNW 6 11 - - - - - - - 11.3 1010.1 -
15/07:00pm WNW 7 10 - - - - - - - 11.7 1009.9 -
15/06:30pm WNW 6 10 - - - - - - - 12.0 1009.6 -
15/06:00pm WNW 6 9 - - - - - - - 12.6 1009.7 -
15/05:30pm WNW 8 14 - - - - - - - 13.0 1009.2 -
15/05:00pm WNW 9 14 - - - - - - - 13.5 1009.0 -
15/04:30pm WNW 8 13 - - - - - - - 13.7 1009.0 -
15/04:00pm WNW 8 12 - - - - - - - 14.2 1009.0 -
15/03:30pm WNW 7 11 - - - - - - - 14.4 1009.0 -
15/03:00pm NW 13 17 - - - - - - - 12.4 1009.5 -
15/02:30pm NW 20 24 - - - - - - - 12.4 1009.9 -
15/02:00pm NW 19 24 - - - - - - - 12.4 1010.0 -
15/01:30pm NW 20 25 - - - - - - - 12.4 1010.0 -
15/01:00pm NNW 18 22 - - - - - - - 12.4 1010.2 -
15/12:30pm NW 15 20 - - - - - - - 12.2 1010.3 -
15/12:00pm W 8 15 - - - - - - - 15.4 1010.5 -
15/11:30am WNW 13 18 - - - - - - - 15.1 1011.3 -
15/11:00am WNW 12 19 - - - - - - - 13.6 1011.7 -
15/10:30am WNW 11 16 - - - - - - - 14.8 1012.0 -
15/10:00am W 9 13 - - - - - - - 14.7 1011.8 -
15/09:30am W 7 11 - - - - - - - 14.8 1012.1 -
15/09:00am WNW 9 12 - - - - - - - 13.7 1012.2 -
15/08:30am NW 10 13 - - - - - - - 13.6 1012.3 -
15/08:00am WNW 7 10 - - - - - - - 13.5 1012.4 -
15/07:30am WNW 5 8 - - - - - - - 12.8 1012.1 -
15/07:00am WNW 6 8 - - - - - - - 12.6 1012.1 -
15/06:30am WNW 7 9 - - - - - - - 12.6 1012.0 -
15/06:00am WNW 7 9 - - - - - - - 12.1 1012.0 -
15/05:30am WNW 8 12 - - - - - - - 11.8 1011.7 -

Other formats

Comma delimited format used in spreadsheet applications
http://www.bom.gov.au/fwo/IDT60701/IDT60701.95963.axf

JavaScript Object Notation format (JSON) in row-major order
http://www.bom.gov.au/fwo/IDT60701/IDT60701.95963.json

Data quality

Most of these data are generated automatically and are frequently updated. Quality checks on data are not normally performed. It is possible for incorrect values to appear. Refer to information at About Latest Weather Observations and please check the disclaimer before using these data.